Time,TemperatureF,DewpointF,PressureIn,WindDirection,WindDirectionDegrees,WindSpeedMPH,WindSpeedGustMPH,Humidity,HourlyPrecipIn,Conditions,Clouds,dailyrainin,SoftwareType,DateUTC
2013-04-13 00:09:00,37.8,31.8,29.90,WSW,251,14.3,17.4,79,0.00,,OVC025,0.00,VWS V14.00,2013-04-13 05:09:00,
2013-04-13 00:19:00,37.8,31.5,29.90,WSW,247,11.6,19.2,78,0.00,,OVC025,0.00,VWS V14.00,2013-04-13 05:19:00,
2013-04-13 00:29:00,37.6,31.4,29.90,WSW,256,12.5,16.6,78,0.00,,OVC025,0.00,VWS V14.00,2013-04-13 05:29:00,
2013-04-13 00:39:00,37.6,30.7,29.90,WSW,248,10.7,21.0,76,0.00,,OVC060,0.00,VWS V14.00,2013-04-13 05:39:00,
2013-04-13 00:49:00,37.6,30.7,29.90,West,267,9.8,16.6,76,0.00,,OVC060,0.00,VWS V14.00,2013-04-13 05:49:00,
2013-04-13 00:59:00,37.4,30.2,29.90,West,281,11.6,15.2,75,0.00,,OVC060,0.00,VWS V14.00,2013-04-13 05:59:00,
2013-04-13 01:09:00,37.4,29.9,29.90,West,270,10.7,20.1,74,0.00,,OVC060,0.00,VWS V14.00,2013-04-13 06:09:00,
2013-04-13 01:19:00,37.2,30.0,29.90,West,267,10.7,16.6,75,0.00,,OVC060,0.00,VWS V14.00,2013-04-13 06:19:00,
2013-04-13 01:28:00,37.2,30.0,29.90,WSW,258,9.8,21.0,75,0.00,,OVC060,0.00,VWS V14.00,2013-04-13 06:28:00,
2013-04-13 01:38:00,37.0,29.9,29.90,WNW,293,10.7,20.1,75,0.00,,OVC060,0.00,VWS V14.00,2013-04-13 06:38:00,
2013-04-13 01:48:00,36.9,30.6,29.93,WSW,252,11.6,16.1,78,0.00,,OVC050,0.00,VWS V14.00,2013-04-13 06:48:00,
2013-04-13 02:00:00,36.7,31.4,29.90,SW,231,14.3,15.2,81,0.00,,OVC050,0.00,VWS V14.00,2013-04-13 07:00:00,
2013-04-13 02:20:00,36.7,31.7,29.90,WSW,241,7.2,13.4,82,0.00,,OVC046,0.00,VWS V14.00,2013-04-13 07:20:00,
2013-04-13 02:30:00,36.7,31.7,29.90,WSW,256,12.5,16.6,82,0.00,,OVC046,0.00,VWS V14.00,2013-04-13 07:30:00,
2013-04-13 02:40:00,36.5,31.2,29.90,WSW,254,9.8,16.6,81,0.00,,OVC046,0.00,VWS V14.00,2013-04-13 07:40:00,
2013-04-13 02:49:00,36.3,30.8,29.90,West,267,11.6,12.5,80,0.00,,OVC042,0.00,VWS V14.00,2013-04-13 07:49:00,
2013-04-13 02:59:00,36.3,30.8,29.90,WSW,242,10.7,16.6,80,0.00,,OVC042,0.00,VWS V14.00,2013-04-13 07:59:00,
2013-04-13 03:09:00,36.3,30.8,29.90,WSW,237,15.2,16.6,80,0.00,,OVC042,0.00,VWS V14.00,2013-04-13 08:09:00,
2013-04-13 03:19:00,36.3,30.8,29.90,SSW,205,16.6,17.4,80,0.00,,OVC042,0.00,VWS V14.00,2013-04-13 08:19:00,
2013-04-13 03:29:00,36.1,30.9,29.90,West,267,9.8,17.4,81,0.00,,OVC042,0.00,VWS V14.00,2013-04-13 08:29:00,
2013-04-13 03:39:00,36.0,31.0,29.90,West,260,13.4,16.1,82,0.00,,OVC042,0.00,VWS V14.00,2013-04-13 08:39:00,
2013-04-13 03:49:00,35.8,31.7,29.90,SW,235,7.2,16.1,85,0.00,,OVC040,0.00,VWS V14.00,2013-04-13 08:49:00,
2013-04-13 03:59:00,35.8,32.0,29.90,WSW,244,11.6,15.2,86,0.00,,OVC034,0.00,VWS V14.00,2013-04-13 08:59:00,
2013-04-13 04:09:00,35.8,32.3,29.90,SW,236,11.6,17.4,87,0.00,,OVC034,0.00,VWS V14.00,2013-04-13 09:09:00,
2013-04-13 04:19:00,35.8,32.3,29.90,SW,228,11.6,15.2,87,0.00,,OVC034,0.00,VWS V14.00,2013-04-13 09:19:00,
2013-04-13 04:29:00,35.8,32.6,29.90,West,263,15.2,16.6,88,0.00,,OVC034,0.00,VWS V14.00,2013-04-13 09:29:00,
2013-04-13 04:39:00,36.0,32.5,29.90,SW,225,21.9,26.4,87,0.00,,OVC036,0.00,VWS V14.00,2013-04-13 09:39:00,
2013-04-13 04:49:00,35.8,31.4,29.90,WSW,246,16.6,28.2,84,0.00,,OVC038,0.00,VWS V14.00,2013-04-13 09:49:00,
2013-04-13 04:59:00,35.8,31.1,29.90,West,263,12.5,21.0,83,0.00,,OVC040,0.00,VWS V14.00,2013-04-13 09:59:00,
2013-04-13 05:29:00,35.4,30.5,29.90,SW,223,13.4,17.4,82,0.00,,OVC040,0.00,VWS V14.00,2013-04-13 10:29:00,
2013-04-13 05:39:00,35.4,30.8,29.90,WSW,252,12.5,19.2,83,0.00,,,0.00,VWS V14.00,2013-04-13 10:39:00,
2013-04-13 06:00:00,35.2,30.6,29.90,West,273,10.7,17.4,83,0.00,,OVC045,0.00,VWS V14.00,2013-04-13 11:00:00,
2013-04-13 06:10:00,35.2,30.6,29.90,West,267,7.2,13.4,83,0.00,,OVC045,0.00,VWS V14.00,2013-04-13 11:10:00,
2013-04-13 06:19:00,35.2,30.6,29.90,West,273,16.1,17.4,83,0.00,,OVC045,0.00,VWS V14.00,2013-04-13 11:19:00,
2013-04-13 06:29:00,35.1,30.1,29.90,West,263,16.6,20.1,82,0.00,,OVC045,0.00,VWS V14.00,2013-04-13 11:29:00,
2013-04-13 06:39:00,34.3,29.7,29.90,West,267,16.1,17.4,83,0.00,,OVC045,0.00,VWS V14.00,2013-04-13 11:39:00,
2013-04-13 06:49:00,34.5,30.2,29.90,West,276,12.5,16.6,84,0.00,,OVC040,0.00,VWS V14.00,2013-04-13 11:49:00,
2013-04-13 06:59:00,34.9,30.5,29.90,SW,234,10.7,17.4,84,0.00,,OVC040,0.00,VWS V14.00,2013-04-13 11:59:00,
2013-04-13 07:09:00,35.1,30.4,29.90,SW,217,10.7,20.1,83,0.00,,OVC040,0.00,VWS V14.00,2013-04-13 12:09:00,
2013-04-13 07:19:00,35.1,30.1,29.90,West,263,8.1,20.1,82,0.00,,OVC040,0.00,VWS V14.00,2013-04-13 12:19:00,
2013-04-13 07:29:00,35.2,30.0,29.93,WSW,256,11.6,21.9,81,0.00,,OVC040,0.00,VWS V14.00,2013-04-13 12:29:00,
2013-04-13 07:39:00,35.2,29.7,29.93,WSW,240,12.5,21.0,80,0.00,,OVC042,0.00,VWS V14.00,2013-04-13 12:39:00,
2013-04-13 07:49:00,35.4,29.9,29.93,WSW,243,10.7,20.1,80,0.00,,OVC042,0.00,VWS V14.00,2013-04-13 12:49:00,
2013-04-13 07:59:00,35.2,29.7,29.93,WSW,247,10.7,20.1,80,0.00,,OVC042,0.00,VWS V14.00,2013-04-13 12:59:00,
2013-04-13 08:09:00,35.2,29.4,29.93,West,267,11.6,22.8,79,0.00,,OVC042,0.00,VWS V14.00,2013-04-13 13:09:00,
2013-04-13 08:19:00,35.4,29.6,29.93,WSW,248,15.2,23.7,79,0.00,,OVC042,0.00,VWS V14.00,2013-04-13 13:19:00,
2013-04-13 08:39:00,35.8,29.3,29.93,West,267,10.7,21.9,77,0.00,,OVC042,0.00,VWS V14.00,2013-04-13 13:39:00,
2013-04-13 08:50:00,35.8,28.6,29.93,West,277,11.6,25.5,75,0.00,,OVC042,0.00,VWS V14.00,2013-04-13 13:50:00,
2013-04-13 09:00:00,36.0,29.1,29.96,WSW,251,11.6,21.9,76,0.00,,OVC042,0.00,VWS V14.00,2013-04-13 14:00:00,
2013-04-13 09:09:00,35.8,29.3,29.96,West,263,8.1,21.9,77,0.00,,OVC045,0.00,VWS V14.00,2013-04-13 14:09:00,
2013-04-13 09:20:00,36.0,29.5,29.96,WNW,293,20.1,20.1,77,0.00,,OVC045,0.00,VWS V14.00,2013-04-13 14:20:00,
2013-04-13 09:29:00,36.0,28.5,29.96,West,274,21.0,21.9,74,0.00,,OVC045,0.00,VWS V14.00,2013-04-13 14:29:00,
2013-04-13 09:39:00,36.1,28.3,29.96,WSW,253,12.5,22.8,73,0.00,,OVC047,0.00,VWS V14.00,2013-04-13 14:39:00,
2013-04-13 09:49:00,36.1,28.0,29.96,WNW,283,11.6,22.8,72,0.00,,OVC049,0.00,VWS V14.00,2013-04-13 14:49:00,
2013-04-13 09:59:00,36.3,27.8,29.96,West,280,16.6,24.6,71,0.00,,OVC049,0.00,VWS V14.00,2013-04-13 14:59:00,
2013-04-13 10:09:00,37.9,28.3,29.96,West,267,12.5,21.0,68,0.00,,OVC048,0.00,VWS V14.00,2013-04-13 15:09:00,
2013-04-13 10:19:00,36.7,27.8,29.96,West,275,10.7,24.6,70,0.00,,OVC048,0.00,VWS V14.00,2013-04-13 15:19:00,
2013-04-13 10:29:00,37.2,27.6,29.96,West,263,17.4,21.9,68,0.00,,OVC048,0.00,VWS V14.00,2013-04-13 15:29:00,
2013-04-13 10:39:00,37.6,28.0,29.96,West,270,17.4,21.9,68,0.00,,BKN035,0.00,VWS V14.00,2013-04-13 15:39:00,
2013-04-13 10:49:00,38.7,29.0,29.96,WSW,255,21.9,21.9,68,0.00,,OVC048,0.00,VWS V14.00,2013-04-13 15:49:00,
2013-04-13 10:59:00,38.5,26.6,29.96,WSW,242,10.7,22.8,62,0.00,,OVC048,0.00,VWS V14.00,2013-04-13 15:59:00,
2013-04-13 11:09:00,37.4,26.0,29.96,West,270,11.6,30.0,63,0.00,,BKN048,0.00,VWS V14.00,2013-04-13 16:09:00,
2013-04-13 11:29:00,38.3,28.0,29.99,West,270,15.2,21.9,66,0.00,,BKN048,0.00,VWS V14.00,2013-04-13 16:29:00,
2013-04-13 11:39:00,38.5,27.8,29.99,WNW,285,10.7,25.5,65,0.00,,OVC050,0.00,VWS V14.00,2013-04-13 16:39:00,
2013-04-13 11:49:00,39.2,28.1,29.99,West,270,10.7,23.7,64,0.00,,OVC042,0.00,VWS V14.00,2013-04-13 16:49:00,
2013-04-13 12:09:00,41.2,27.1,29.99,West,263,17.4,30.0,57,0.00,,OVC044,0.00,VWS V14.00,2013-04-13 17:09:00,
2013-04-13 12:19:00,39.9,25.9,29.99,West,272,21.9,24.6,57,0.00,,OVC044,0.00,VWS V14.00,2013-04-13 17:19:00,
2013-04-13 12:29:00,39.7,26.2,29.99,WSW,252,16.6,22.8,58,0.00,,OVC043,0.00,VWS V14.00,2013-04-13 17:29:00,
2013-04-13 12:38:00,39.6,26.4,29.99,West,277,16.1,25.5,59,0.00,,OVC043,0.00,VWS V14.00,2013-04-13 17:38:00,
2013-04-13 12:50:00,40.3,25.4,29.99,West,280,11.6,24.6,55,0.00,,OVC045,0.00,VWS V14.00,2013-04-13 17:50:00,
2013-04-13 13:10:00,41.0,26.1,29.99,West,263,19.2,24.6,55,0.00,,BKN044,0.00,VWS V14.00,2013-04-13 18:10:00,
2013-04-13 13:19:00,42.1,25.7,29.99,WNW,282,15.2,25.5,52,0.00,,BKN044,0.00,VWS V14.00,2013-04-13 18:19:00,
2013-04-13 13:29:00,42.3,25.9,29.99,West,267,16.6,26.4,52,0.00,,BKN044,0.00,VWS V14.00,2013-04-13 18:29:00,
2013-04-13 13:39:00,42.6,26.2,29.99,SW,222,16.1,24.6,52,0.00,,BKN044,0.00,VWS V14.00,2013-04-13 18:39:00,
2013-04-13 13:49:00,42.4,26.5,29.99,West,267,12.5,21.9,53,0.00,,OVC040,0.00,VWS V14.00,2013-04-13 18:49:00,
2013-04-13 13:59:00,41.5,26.1,29.99,West,263,10.7,21.9,54,0.00,,OVC040,0.00,VWS V14.00,2013-04-13 18:59:00,
2013-04-13 14:09:00,42.6,26.7,29.99,WSW,237,10.7,22.8,53,0.00,,OVC042,0.00,VWS V14.00,2013-04-13 19:09:00,
2013-04-13 14:19:00,42.4,26.5,29.99,WNW,288,17.4,21.0,53,0.00,,OVC042,0.00,VWS V14.00,2013-04-13 19:19:00,
2013-04-13 14:29:00,42.4,26.5,29.99,WNW,288,16.1,21.9,53,0.00,,OVC042,0.00,VWS V14.00,2013-04-13 19:29:00,
2013-04-13 14:39:00,43.3,27.4,29.99,West,263,17.4,21.0,53,0.00,,OVC042,0.00,VWS V14.00,2013-04-13 19:39:00,
2013-04-13 14:49:00,44.4,28.8,29.99,WNW,285,17.4,20.1,54,0.00,,OVC040,0.00,VWS V14.00,2013-04-13 19:49:00,
2013-04-13 14:59:00,44.6,28.5,29.99,West,279,8.1,26.4,53,0.00,,OVC040,0.00,VWS V14.00,2013-04-13 19:59:00,
2013-04-13 15:09:00,45.3,28.3,29.99,WSW,238,20.1,24.6,51,0.00,,OVC042,0.00,VWS V14.00,2013-04-13 20:09:00,
2013-04-13 15:19:00,45.1,27.6,29.99,West,273,16.6,25.5,50,0.00,,OVC042,0.00,VWS V14.00,2013-04-13 20:19:00,
2013-04-13 15:29:00,45.3,28.3,29.99,WNW,287,16.1,28.2,51,0.00,,OVC042,0.00,VWS V14.00,2013-04-13 20:29:00,
2013-04-13 15:39:00,45.5,28.4,29.99,WSW,241,16.1,18.3,51,0.00,,OVC042,0.00,VWS V14.00,2013-04-13 20:39:00,
2013-04-13 15:50:00,45.3,27.3,29.99,West,275,17.4,26.4,49,0.00,,BKN044,0.00,VWS V14.00,2013-04-13 20:50:00,
2013-04-13 16:00:00,45.1,27.6,29.99,SW,227,12.5,21.9,50,0.00,,BKN044,0.00,VWS V14.00,2013-04-13 21:00:00,
2013-04-13 16:09:00,45.1,27.6,29.99,West,277,15.2,21.9,50,0.00,,BKN044,0.00,VWS V14.00,2013-04-13 21:09:00,
2013-04-13 16:20:00,46.4,28.8,29.99,NW,309,11.6,21.0,50,0.00,,BKN044,0.00,VWS V14.00,2013-04-13 21:20:00,
2013-04-13 16:29:00,46.8,29.1,29.99,SW,218,10.7,20.1,50,0.00,,BKN044,0.00,VWS V14.00,2013-04-13 21:29:00,
2013-04-13 16:39:00,46.6,29.0,29.99,West,270,7.2,20.1,50,0.00,,BKN046,0.00,VWS V14.00,2013-04-13 21:39:00,
2013-04-13 16:49:00,45.5,28.0,29.99,West,267,11.6,17.4,50,0.00,,BKN044,0.00,VWS V14.00,2013-04-13 21:49:00,
2013-04-13 16:59:00,45.5,28.0,29.99,West,267,8.1,17.4,50,0.00,,BKN044,0.00,VWS V14.00,2013-04-13 21:59:00,
2013-04-13 17:09:00,45.3,28.3,29.99,WSW,255,13.4,17.4,51,0.00,,BKN047,0.00,VWS V14.00,2013-04-13 22:09:00,
2013-04-13 17:19:00,45.9,29.2,29.99,WSW,247,11.6,16.6,52,0.00,,BKN047,0.00,VWS V14.00,2013-04-13 22:19:00,
2013-04-13 17:29:00,46.2,29.6,29.99,West,272,11.6,15.2,52,0.00,,BKN047,0.00,VWS V14.00,2013-04-13 22:29:00,
2013-04-13 17:39:00,45.3,27.8,29.99,West,273,11.6,21.9,50,0.00,,BKN047,0.00,VWS V14.00,2013-04-13 22:39:00,
2013-04-13 17:49:00,46.8,29.6,29.99,WNW,286,18.3,18.3,51,0.00,,BKN049,0.00,VWS V14.00,2013-04-13 22:49:00,
2013-04-13 17:59:00,45.9,28.8,29.99,West,270,8.1,21.9,51,0.00,,BKN048,0.00,VWS V14.00,2013-04-13 22:59:00,
2013-04-13 18:09:00,45.9,28.8,29.99,WSW,254,11.6,16.6,51,0.00,,BKN048,0.00,VWS V14.00,2013-04-13 23:09:00,
2013-04-13 18:19:00,45.5,28.9,29.99,WNW,284,6.3,16.6,52,0.00,,BKN048,0.00,VWS V14.00,2013-04-13 23:19:00,
2013-04-13 18:39:00,45.9,29.2,29.99,West,277,8.1,12.5,52,0.00,,BKN048,0.00,VWS V14.00,2013-04-13 23:39:00,
2013-04-13 18:50:00,45.5,29.4,29.99,West,259,5.4,10.7,53,0.00,,BKN048,0.00,VWS V14.00,2013-04-13 23:50:00,
2013-04-13 19:00:00,45.1,29.5,29.99,West,271,7.2,9.8,54,0.00,,BKN048,0.00,VWS V14.00,2013-04-14 00:00:00,
2013-04-13 19:09:00,44.8,29.6,29.96,West,270,5.4,11.6,55,0.00,,BKN048,0.00,VWS V14.00,2013-04-14 00:09:00,
2013-04-13 19:19:00,44.2,29.5,29.96,SW,225,5.4,8.1,56,0.00,,BKN048,0.00,VWS V14.00,2013-04-14 00:19:00,
2013-04-13 19:29:00,43.9,29.2,29.99,West,278,5.4,7.2,56,0.00,,BKN048,0.00,VWS V14.00,2013-04-14 00:29:00,
2013-04-13 19:39:00,43.5,29.7,29.99,West,267,6.3,8.1,58,0.00,,OVC048,0.00,VWS V14.00,2013-04-14 00:39:00,
2013-04-13 19:49:00,43.2,29.8,29.99,West,270,0.0,6.3,59,0.00,,OVC048,0.00,VWS V14.00,2013-04-14 00:49:00,
2013-04-13 19:59:00,42.8,29.9,29.99,West,272,0.0,5.4,60,0.00,,OVC048,0.00,VWS V14.00,2013-04-14 00:59:00,
2013-04-13 20:09:00,42.1,30.0,29.99,West,272,0.0,0.0,62,0.00,,OVC048,0.00,VWS V14.00,2013-04-14 01:09:00,
2013-04-13 20:19:00,41.5,30.3,29.99,West,272,0.0,0.0,64,0.00,,OVC048,0.00,VWS V14.00,2013-04-14 01:19:00,
2013-04-13 20:29:00,41.2,30.7,29.99,West,272,0.0,0.0,66,0.00,,OVC048,0.00,VWS V14.00,2013-04-14 01:29:00,
2013-04-13 20:39:00,40.8,31.5,29.99,West,272,0.0,0.0,69,0.00,,BKN048,0.00,VWS V14.00,2013-04-14 01:39:00,
2013-04-13 20:49:00,40.8,31.5,29.99,West,272,0.0,0.0,69,0.00,,BKN110,0.00,VWS V14.00,2013-04-14 01:49:00,
2013-04-13 20:59:00,41.2,31.8,29.99,West,272,0.0,0.0,69,0.00,,BKN110,0.00,VWS V14.00,2013-04-14 01:59:00,
2013-04-13 21:09:00,41.2,32.2,29.99,West,272,0.0,0.0,70,0.00,,BKN110,0.00,VWS V14.00,2013-04-14 02:09:00,
2013-04-13 21:19:00,41.2,32.2,29.99,West,272,0.0,0.0,70,0.00,,BKN110,0.00,VWS V14.00,2013-04-14 02:19:00,
2013-04-13 21:29:00,41.4,33.0,29.99,West,272,0.0,0.0,72,0.00,,BKN110,0.00,VWS V14.00,2013-04-14 02:29:00,
2013-04-13 21:39:00,41.4,33.0,29.99,West,272,0.0,0.0,72,0.00,,OVC110,0.00,VWS V14.00,2013-04-14 02:39:00,
2013-04-13 21:50:00,41.4,33.4,29.99,West,272,0.0,0.0,73,0.00,,OVC110,0.00,VWS V14.00,2013-04-14 02:50:00,
2013-04-13 22:00:00,41.4,33.4,29.99,West,272,0.0,0.0,73,0.00,,OVC110,0.00,VWS V14.00,2013-04-14 03:00:00,
2013-04-13 22:10:00,41.4,33.4,29.99,West,272,0.0,0.0,73,0.00,,OVC100,0.00,VWS V14.00,2013-04-14 03:10:00,
2013-04-13 22:20:00,41.5,33.2,29.99,East,97,0.0,7.2,72,0.00,,OVC100,0.00,VWS V14.00,2013-04-14 03:20:00,
2013-04-13 22:29:00,41.7,33.4,29.99,East,81,5.4,7.2,72,0.00,,OVC100,0.00,VWS V14.00,2013-04-14 03:29:00,
2013-04-13 22:39:00,41.7,33.4,29.99,ENE,70,0.0,5.4,72,0.00,,OVC100,0.00,VWS V14.00,2013-04-14 03:39:00,
2013-04-13 22:49:00,41.5,33.2,29.99,ENE,70,0.0,0.0,72,0.00,,OVC090,0.00,VWS V14.00,2013-04-14 03:49:00,
2013-04-13 22:59:00,41.5,32.8,29.99,ENE,70,0.0,0.0,71,0.00,,OVC090,0.00,VWS V14.00,2013-04-14 03:59:00,
2013-04-13 23:09:00,41.7,33.4,29.99,ENE,70,0.0,0.0,72,0.00,,OVC090,0.00,VWS V14.00,2013-04-14 04:09:00,
2013-04-13 23:19:00,41.5,33.5,29.99,ENE,73,0.0,0.0,73,0.00,,OVC090,0.00,VWS V14.00,2013-04-14 04:19:00,
2013-04-13 23:29:00,41.5,33.9,30.02,ENE,73,0.0,0.0,74,0.00,,OVC080,0.00,VWS V14.00,2013-04-14 04:29:00,
2013-04-13 23:39:00,41.5,34.2,30.02,ENE,74,0.0,0.0,75,0.00,,OVC080,0.00,VWS V14.00,2013-04-14 04:39:00,
2013-04-13 23:49:00,41.4,34.0,30.02,ENE,74,0.0,0.0,75,0.00,,OVC080,0.00,VWS V14.00,2013-04-14 04:49:00,
2013-04-13 23:59:00,41.4,34.0,30.02,ENE,74,0.0,0.0,75,0.00,,OVC090,0.00,VWS V14.00,2013-04-14 04:59:00,